Accueil
METAR-TAF:

METAR-TAF

Aéroports :

Aéroport international de Tokyo-Haneda

Tokyo-Haneda, Japon

latitude: 35-33N, longitude: 139-47E, altitude: 5 m

Observation

Le bulletin a été fait il y a 31 minutes, à 22:00 UTC
Vent 14 kt de nord/nord-est
Température 16°C
Humidité 82%
Pression 1013 hPa
Visibilité 10 km ou plus
Quelques nuages à une hauteur de 1000 ft
Nuages fragmentés à une hauteur de 4500 ft
Nuages fragmentés à une hauteur de 7000 ft

METAR: RJTT 122200Z 03014KT 9999 FEW010 BKN045 BKN070 16/13 Q1013 NOSIG RMK 1CU010 5SC045 6AC070 A2992

Heure: 07:31 (22:31 UTC)

Prévision

Le bulletin a été fait il y a 5 heures et 24 minutes, à 17:07 UTC
Prévision valable du 12 à 18 UTC au 14 à 00 UTC
Vent 12 kt de nord-est
Visibilité: 8000 m
Quelques nuages à une hauteur de 1200 ft
Nuages fragmentés à une hauteur de 3000 ft

TAF: RJTT 121707Z 1218/1400 04012KT 8000 FEW012 BKN030

Observations et prévisions météorologiques de plus de 4000 aéroports (messages METAR et TAF).

Les stations disponibles sont représentées par des disques jaunes et rouges sur la carte.

Passer la souris dessus pour voir le nom de la station.

Cliquer dessus pour voir les observations et prévisions météorologiques.

Pour changer de carte: cliquez sur les boutons verts avec une croix noire pour zoomer, sur le bouton vert avec un tiret pour effectuer un zoom arrière, ou sur les flèches vertes pour les cartes adjacentes.


METAR-TAF: